createdAt,value
2018-08-22T00:01:26.841Z,14.50
2018-08-22T00:03:55.634Z,15.13
2018-08-22T00:06:24.294Z,14.90
2018-08-22T00:08:53.004Z,14.73
2018-08-22T00:11:21.845Z,15.23
2018-08-22T00:13:50.567Z,13.70
2018-08-22T00:16:19.279Z,13.57
2018-08-22T00:18:47.993Z,14.30
2018-08-22T00:21:16.678Z,15.17
2018-08-22T00:23:45.370Z,16.10
2018-08-22T00:26:14.096Z,13.63
2018-08-22T00:28:43.043Z,14.10
2018-08-22T00:31:11.762Z,14.30
2018-08-22T00:33:40.499Z,13.77
2018-08-22T00:36:09.255Z,14.60
2018-08-22T00:38:38.002Z,14.63
2018-08-22T00:41:06.734Z,14.37
2018-08-22T00:43:35.470Z,14.67
2018-08-22T00:46:04.196Z,14.50
2018-08-22T00:48:32.985Z,13.47
2018-08-22T00:51:01.774Z,14.43
2018-08-22T00:53:30.474Z,14.33
2018-08-22T00:55:59.151Z,13.93
2018-08-22T00:58:27.857Z,14.53
2018-08-22T01:00:56.551Z,14.37
2018-08-22T01:03:25.301Z,15.33
2018-08-22T01:05:53.987Z,14.20
2018-08-22T01:08:22.666Z,15.40
2018-08-22T01:10:51.362Z,14.33
2018-08-22T01:13:20.048Z,14.47
2018-08-22T01:15:48.818Z,14.47
2018-08-22T01:18:17.524Z,15.10
2018-08-22T01:20:46.216Z,14.50
2018-08-22T01:23:15.000Z,14.20
2018-08-22T01:25:43.693Z,14.63
2018-08-22T01:28:12.399Z,15.10
2018-08-22T01:30:41.102Z,14.77
2018-08-22T01:33:09.830Z,15.20
2018-08-22T01:35:38.551Z,14.60
2018-08-22T01:38:07.347Z,14.17
2018-08-22T01:40:36.104Z,15.23
2018-08-22T01:43:04.810Z,14.87
2018-08-22T01:45:33.495Z,14.73
2018-08-22T01:48:02.196Z,14.27
2018-08-22T01:50:30.900Z,15.53
2018-08-22T01:52:59.575Z,14.40
2018-08-22T01:55:28.239Z,15.40
2018-08-22T01:57:56.927Z,15.37
2018-08-22T02:00:25.654Z,14.50
2018-08-22T02:02:54.399Z,15.33
2018-08-22T02:05:23.119Z,14.80
2018-08-22T02:07:51.841Z,15.00
2018-08-22T02:10:20.671Z,14.93
2018-08-22T02:12:49.384Z,14.50
2018-08-22T02:15:18.085Z,15.27
2018-08-22T02:17:46.793Z,15.20
2018-08-22T02:20:15.470Z,14.73
2018-08-22T02:22:44.188Z,14.77
2018-08-22T02:25:12.954Z,15.43
2018-08-22T02:27:41.603Z,14.97
2018-08-22T02:30:10.427Z,14.67
2018-08-22T02:32:39.149Z,15.60
2018-08-22T02:35:07.902Z,14.67
2018-08-22T02:37:36.591Z,14.73
2018-08-22T02:40:05.481Z,14.67
2018-08-22T02:42:34.175Z,15.10
2018-08-22T02:45:02.877Z,14.20
2018-08-22T02:47:31.571Z,14.50
2018-08-22T02:50:00.271Z,15.03
2018-08-22T02:52:28.958Z,14.60
2018-08-22T02:54:57.690Z,14.50
2018-08-22T02:57:26.434Z,15.20
2018-08-22T02:59:55.124Z,14.40
2018-08-22T03:02:23.809Z,14.63
2018-08-22T03:04:52.618Z,15.50
2018-08-22T03:07:21.338Z,13.77
2018-08-22T03:09:50.037Z,14.47
2018-08-22T03:12:18.730Z,13.33
2018-08-22T03:14:48.031Z,14.30
2018-08-22T03:17:16.705Z,14.40
2018-08-22T03:19:45.470Z,14.97
2018-08-22T03:22:14.152Z,14.53
2018-08-22T03:24:42.831Z,14.40
2018-08-22T03:27:11.545Z,14.70
2018-08-22T03:29:40.269Z,13.43
2018-08-22T03:32:08.986Z,13.50
2018-08-22T03:34:37.681Z,14.10
2018-08-22T03:37:06.427Z,14.07
2018-08-22T03:39:35.154Z,23.83
2018-08-22T03:42:03.874Z,21.80
2018-08-22T03:44:32.643Z,14.33
2018-08-22T03:47:01.495Z,13.83
2018-08-22T03:49:30.202Z,14.20
2018-08-22T03:51:58.884Z,13.70
2018-08-22T03:54:27.603Z,14.03
2018-08-22T03:56:56.284Z,13.60
2018-08-22T03:59:24.961Z,13.87
2018-08-22T04:01:53.680Z,13.77
2018-08-22T04:04:22.379Z,14.80
2018-08-22T04:06:51.095Z,13.47
2018-08-22T04:09:19.779Z,13.40
2018-08-22T04:11:48.483Z,13.73
2018-08-22T04:14:17.309Z,13.30
2018-08-22T04:16:46.006Z,12.93
2018-08-22T04:19:14.738Z,12.90
2018-08-22T04:21:43.472Z,13.50
2018-08-22T04:24:12.211Z,13.13
2018-08-22T04:26:40.933Z,13.80
2018-08-22T04:29:09.752Z,13.13
2018-08-22T04:31:38.412Z,13.60
2018-08-22T04:34:07.130Z,14.30
2018-08-22T04:36:35.950Z,14.93
2018-08-22T04:39:06.023Z,14.13
2018-08-22T04:41:34.747Z,13.30
2018-08-22T04:44:03.487Z,14.00
2018-08-22T04:46:33.683Z,13.83
2018-08-22T04:49:03.132Z,13.50
2018-08-22T04:51:31.877Z,13.63
2018-08-22T04:54:00.600Z,13.77
2018-08-22T04:56:29.442Z,12.73
2018-08-22T04:58:58.138Z,13.13
2018-08-22T05:01:26.964Z,12.47
2018-08-22T05:03:55.730Z,13.07
2018-08-22T05:06:24.429Z,12.10
2018-08-22T05:08:53.102Z,12.07
2018-08-22T05:11:21.800Z,14.47
2018-08-22T05:13:50.519Z,17.73
2018-08-22T05:16:19.274Z,12.93
2018-08-22T05:18:47.950Z,12.07
2018-08-22T05:21:16.636Z,12.80
2018-08-22T05:23:45.350Z,11.43
2018-08-22T05:26:14.092Z,13.77
2018-08-22T05:28:42.809Z,13.23
2018-08-22T05:31:11.546Z,13.30
2018-08-22T05:33:40.243Z,14.30
2018-08-22T05:36:08.939Z,13.70
2018-08-22T05:38:37.724Z,14.77
2018-08-22T05:41:06.419Z,13.37
2018-08-22T05:43:35.107Z,12.50
2018-08-22T05:46:03.852Z,12.83
2018-08-22T05:48:32.568Z,12.80
2018-08-22T05:51:01.347Z,11.90
2018-08-22T05:53:30.042Z,11.37
2018-08-22T05:55:59.063Z,11.53
2018-08-22T05:58:28.001Z,11.03
2018-08-22T06:00:56.829Z,10.43
2018-08-22T06:03:25.907Z,11.27
2018-08-22T06:05:54.626Z,9.53
2018-08-22T06:08:23.382Z,9.40
2018-08-22T06:10:52.180Z,10.33
2018-08-22T06:13:20.911Z,10.80
2018-08-22T06:15:49.875Z,10.07
2018-08-22T06:18:18.511Z,10.60
2018-08-22T06:20:47.217Z,9.93
2018-08-22T06:23:15.967Z,12.40
2018-08-22T06:25:44.721Z,10.17
2018-08-22T06:28:14.175Z,13.27
2018-08-22T06:30:42.995Z,11.93
2018-08-22T06:33:11.724Z,10.83
2018-08-22T06:35:40.592Z,10.03
2018-08-22T06:38:09.375Z,9.83
2018-08-22T06:40:38.103Z,9.23
2018-08-22T06:43:06.845Z,10.30
2018-08-22T06:45:35.617Z,10.50
2018-08-22T06:48:04.356Z,9.70
2018-08-22T06:50:33.024Z,9.77
2018-08-22T06:53:01.739Z,9.03
2018-08-22T06:55:30.419Z,9.63
2018-08-22T06:57:59.138Z,10.13
2018-08-22T07:00:27.903Z,11.00
2018-08-22T07:02:56.578Z,9.57
2018-08-22T07:05:25.356Z,9.87
2018-08-22T07:07:54.154Z,10.17
2018-08-22T07:10:22.912Z,10.13
2018-08-22T07:12:51.666Z,9.70
2018-08-22T07:15:20.382Z,11.17
2018-08-22T07:17:49.118Z,11.20
2018-08-22T07:20:17.778Z,11.13
2018-08-22T07:22:46.479Z,10.67
2018-08-22T07:25:15.883Z,9.10
2018-08-22T07:27:48.464Z,10.47
2018-08-22T07:30:17.259Z,9.87
2018-08-22T07:32:49.180Z,9.70
2018-08-22T07:35:17.921Z,10.20
2018-08-22T07:37:46.726Z,10.67
2018-08-22T07:40:15.433Z,10.20
2018-08-22T07:42:44.207Z,11.33
2018-08-22T07:45:12.949Z,10.57
2018-08-22T07:47:44.052Z,10.87
2018-08-22T07:50:12.901Z,11.57
2018-08-22T07:52:49.170Z,10.77
2018-08-22T07:55:17.939Z,10.77
2018-08-22T07:57:46.700Z,10.80
2018-08-22T08:00:15.533Z,11.33
2018-08-22T08:02:44.144Z,11.87
2018-08-22T08:05:12.903Z,12.53
2018-08-22T08:07:41.585Z,11.37
2018-08-22T08:10:44.135Z,10.07
2018-08-22T08:13:17.895Z,9.07
2018-08-22T08:15:47.557Z,9.73
2018-08-22T08:18:16.320Z,9.33
2018-08-22T08:20:45.008Z,9.53
2018-08-22T08:23:13.671Z,9.47
2018-08-22T08:25:42.422Z,9.50
2018-08-22T08:28:11.115Z,8.93
2018-08-22T08:30:39.836Z,9.20
2018-08-22T08:33:08.509Z,9.40
2018-08-22T08:35:37.303Z,9.23
2018-08-22T08:38:06.183Z,8.67
2018-08-22T08:40:34.870Z,8.40
2018-08-22T08:43:03.613Z,8.30
2018-08-22T08:45:32.332Z,8.50
2018-08-22T08:48:01.039Z,7.60
2018-08-22T08:50:29.732Z,8.20
2018-08-22T08:52:58.421Z,7.40
2018-08-22T08:55:27.148Z,7.73
2018-08-22T08:57:55.864Z,7.73
2018-08-22T09:00:24.558Z,7.77
2018-08-22T09:02:53.296Z,8.48
2018-08-22T09:05:22.012Z,8.78
2018-08-22T09:07:50.666Z,7.53
2018-08-22T09:10:19.416Z,8.18
2018-08-22T09:12:48.105Z,7.58
2018-08-22T09:15:16.772Z,7.20
2018-08-22T09:17:45.682Z,8.18
2018-08-22T09:20:14.393Z,7.60
2018-08-22T09:22:43.039Z,7.80
2018-08-22T09:25:11.728Z,7.50
2018-08-22T09:27:40.729Z,7.42
2018-08-22T09:30:09.518Z,7.83
2018-08-22T09:32:38.185Z,7.83
2018-08-22T09:35:06.934Z,7.33
2018-08-22T09:37:35.607Z,7.58
2018-08-22T09:40:04.416Z,7.97
2018-08-22T09:42:33.080Z,7.78
2018-08-22T09:45:01.823Z,7.65
2018-08-22T09:47:30.507Z,7.78
2018-08-22T09:49:59.200Z,7.40
2018-08-22T09:52:27.966Z,7.12
2018-08-22T09:55:02.996Z,7.45
2018-08-22T09:57:32.245Z,7.70
2018-08-22T10:00:01.015Z,7.10
2018-08-22T10:02:29.704Z,8.13
2018-08-22T10:04:59.744Z,7.25
2018-08-22T10:07:28.558Z,7.83
2018-08-22T10:09:57.248Z,7.83
2018-08-22T10:12:25.962Z,7.37
2018-08-22T10:14:54.725Z,7.60
2018-08-22T10:17:23.537Z,7.42
2018-08-22T10:19:52.222Z,6.55
2018-08-22T10:22:21.022Z,7.10
2018-08-22T10:24:49.723Z,6.92
2018-08-22T10:27:18.406Z,7.40
2018-08-22T10:29:47.103Z,7.53
2018-08-22T10:32:15.797Z,6.90
2018-08-22T10:34:44.497Z,7.10
2018-08-22T10:37:13.188Z,6.90
2018-08-22T10:39:41.870Z,7.35
2018-08-22T10:42:10.592Z,6.95
2018-08-22T10:44:39.342Z,6.83
2018-08-22T10:47:08.022Z,6.95
2018-08-22T10:49:36.736Z,6.87
2018-08-22T10:52:05.447Z,6.55
2018-08-22T10:54:34.138Z,6.30
2018-08-22T10:57:02.831Z,7.00
2018-08-22T10:59:31.503Z,6.83
2018-08-22T11:02:00.196Z,6.53
2018-08-22T11:04:28.899Z,6.50
2018-08-22T11:06:57.567Z,6.47
2018-08-22T11:09:26.260Z,6.67
2018-08-22T11:11:54.979Z,6.80
2018-08-22T11:14:23.676Z,6.72
2018-08-22T11:16:52.363Z,6.85
2018-08-22T11:19:21.088Z,6.08
2018-08-22T11:22:00.769Z,6.47
2018-08-22T11:24:40.471Z,7.03
2018-08-22T11:27:20.300Z,6.33
2018-08-22T11:30:00.046Z,5.90
2018-08-22T11:32:39.696Z,6.15
2018-08-22T11:35:07.077Z,6.55
2018-08-22T11:37:35.798Z,6.37
2018-08-22T11:40:04.516Z,6.67
2018-08-22T11:42:33.184Z,6.12
2018-08-22T11:45:01.926Z,6.65
2018-08-22T11:47:30.649Z,6.22
2018-08-22T11:49:59.354Z,6.08
2018-08-22T11:52:28.037Z,6.53
2018-08-22T11:54:56.784Z,6.58
2018-08-22T11:57:25.452Z,6.22
2018-08-22T11:59:54.183Z,6.58
2018-08-22T12:02:22.875Z,6.60
2018-08-22T12:04:51.633Z,6.60
2018-08-22T12:07:20.357Z,6.42
2018-08-22T12:09:49.055Z,6.47
2018-08-22T12:12:17.717Z,6.75
2018-08-22T12:14:46.407Z,6.10
2018-08-22T12:17:15.081Z,5.78
2018-08-22T12:19:43.771Z,6.05
2018-08-22T12:22:12.478Z,5.90
2018-08-22T12:24:41.229Z,6.30
2018-08-22T12:27:09.936Z,6.60
2018-08-22T12:29:38.656Z,6.85
2018-08-22T12:32:07.398Z,6.28
2018-08-22T12:34:36.059Z,6.47
2018-08-22T12:37:05.158Z,6.20
2018-08-22T12:39:33.884Z,6.78
2018-08-22T12:42:02.572Z,6.22
2018-08-22T12:44:31.321Z,6.42
2018-08-22T12:47:00.009Z,6.17
2018-08-22T12:49:28.714Z,5.95
2018-08-22T12:51:57.397Z,5.87
2018-08-22T12:54:26.099Z,6.58
2018-08-22T12:56:54.875Z,6.78
2018-08-22T12:59:23.617Z,6.17
2018-08-22T13:01:52.338Z,6.08
2018-08-22T13:04:21.058Z,6.15
2018-08-22T13:06:49.811Z,5.70
2018-08-22T13:09:18.625Z,6.10
2018-08-22T13:11:47.331Z,6.72
2018-08-22T13:14:16.053Z,6.62
2018-08-22T13:16:44.758Z,6.60
2018-08-22T13:19:13.518Z,6.62
2018-08-22T13:21:42.214Z,7.50
2018-08-22T13:24:10.999Z,6.97
2018-08-22T13:26:39.621Z,6.22
2018-08-22T13:29:08.371Z,6.90
2018-08-22T13:31:37.064Z,6.60
2018-08-22T13:34:05.931Z,6.47
2018-08-22T13:36:34.677Z,6.58
2018-08-22T13:39:04.588Z,6.30
2018-08-22T13:41:33.230Z,7.28
2018-08-22T13:44:01.917Z,7.30
2018-08-22T13:46:30.597Z,7.40
2018-08-22T13:48:59.368Z,7.10
2018-08-22T13:51:28.073Z,7.00
2018-08-22T13:53:56.801Z,6.03
2018-08-22T13:56:25.576Z,6.53
2018-08-22T13:58:54.469Z,6.47
2018-08-22T14:01:23.198Z,7.50
2018-08-22T14:03:51.997Z,7.00
2018-08-22T14:06:20.853Z,6.92
2018-08-22T14:08:49.530Z,7.10
2018-08-22T14:11:18.238Z,7.55
2018-08-22T14:13:46.970Z,6.33
2018-08-22T14:16:15.672Z,6.42
2018-08-22T14:18:44.369Z,6.37
2018-08-22T14:21:13.137Z,6.60
2018-08-22T14:23:41.820Z,6.72
2018-08-22T14:26:10.591Z,6.30
2018-08-22T14:28:39.355Z,6.35
2018-08-22T14:31:08.088Z,6.33
2018-08-22T14:33:36.769Z,7.15
2018-08-22T14:36:05.480Z,6.45
2018-08-22T14:38:34.483Z,6.80
2018-08-22T14:41:03.407Z,5.95
2018-08-22T14:43:32.179Z,6.55
2018-08-22T14:46:00.921Z,6.58
2018-08-22T14:48:29.600Z,6.42
2018-08-22T14:50:58.309Z,6.65
2018-08-22T14:53:26.993Z,6.45
2018-08-22T14:55:55.724Z,6.78
2018-08-22T14:58:24.479Z,6.58
2018-08-22T15:00:53.378Z,6.60
2018-08-22T15:03:22.290Z,7.70
2018-08-22T15:05:50.858Z,6.47
2018-08-22T15:08:19.586Z,6.95
2018-08-22T15:10:48.834Z,6.60
2018-08-22T15:13:17.537Z,7.28
2018-08-22T15:15:47.120Z,7.28
2018-08-22T15:18:15.933Z,7.15
2018-08-22T15:20:44.718Z,6.95
2018-08-22T15:23:13.423Z,7.25
2018-08-22T15:25:42.126Z,7.53
2018-08-22T15:28:10.831Z,6.53
2018-08-22T15:30:39.552Z,7.17
2018-08-22T15:33:08.278Z,7.28
2018-08-22T15:35:37.009Z,6.72
2018-08-22T15:38:05.858Z,6.45
2018-08-22T15:40:34.567Z,6.58
2018-08-22T15:43:03.291Z,6.42
2018-08-22T15:45:32.067Z,8.08
2018-08-22T15:48:00.752Z,6.67
2018-08-22T15:50:29.438Z,7.03
2018-08-22T15:52:58.313Z,6.95
2018-08-22T15:55:27.010Z,6.60
2018-08-22T15:57:59.856Z,6.55
2018-08-22T16:00:49.484Z,6.90
2018-08-22T16:03:18.173Z,6.78
2018-08-22T16:05:47.728Z,6.45
2018-08-22T16:08:17.840Z,6.60
2018-08-22T16:10:46.530Z,6.97
2018-08-22T16:13:20.261Z,6.80
2018-08-22T16:15:50.638Z,7.10
2018-08-22T16:18:19.528Z,6.75
2018-08-22T16:21:00.603Z,8.73
2018-08-22T16:23:31.113Z,8.38
2018-08-22T16:26:01.013Z,7.28
2018-08-22T16:28:36.523Z,6.80
2018-08-22T16:31:05.256Z,7.58
2018-08-22T16:33:33.986Z,8.90
2018-08-22T16:36:02.780Z,9.93
2018-08-22T16:38:31.513Z,7.95
2018-08-22T16:41:00.223Z,7.72
2018-08-22T16:43:41.210Z,7.45
2018-08-22T16:46:11.595Z,7.17
2018-08-22T16:48:41.243Z,8.25
2018-08-22T16:51:09.972Z,6.78
2018-08-22T16:53:38.696Z,7.28
2018-08-22T16:56:07.499Z,7.40
2018-08-22T16:58:36.245Z,10.45
2018-08-22T17:01:04.971Z,7.62
2018-08-22T17:03:33.695Z,7.85
2018-08-22T17:06:12.576Z,8.18
2018-08-22T17:08:41.751Z,7.90
2018-08-22T17:11:12.056Z,9.50
2018-08-22T17:13:49.670Z,8.23
2018-08-22T17:16:18.532Z,7.28
2018-08-22T17:18:47.572Z,7.50
2018-08-22T17:21:16.414Z,7.65
2018-08-22T17:23:45.414Z,7.87
2018-08-22T17:26:16.150Z,9.73
2018-08-22T17:28:47.446Z,7.25
2018-08-22T17:31:16.972Z,8.53
2018-08-22T17:33:51.422Z,7.53
2018-08-22T17:36:20.086Z,7.83
2018-08-22T17:38:50.036Z,7.70
2018-08-22T17:41:20.692Z,7.87
2018-08-22T17:44:14.130Z,7.80
2018-08-22T17:46:45.484Z,8.20
2018-08-22T17:49:14.177Z,7.53
2018-08-22T17:52:09.608Z,7.67
2018-08-22T17:54:38.352Z,7.60
2018-08-22T17:57:31.200Z,7.90
2018-08-22T17:59:59.961Z,8.10
2018-08-22T18:02:28.813Z,7.87
2018-08-22T18:05:01.841Z,8.37
2018-08-22T18:07:30.871Z,7.70
2018-08-22T18:09:59.694Z,7.10
2018-08-22T18:12:28.769Z,7.93
2018-08-22T18:14:58.601Z,8.27
2018-08-22T18:17:27.365Z,8.40
2018-08-22T18:19:56.086Z,7.60
2018-08-22T18:22:30.213Z,8.17
2018-08-22T18:24:59.110Z,7.70
2018-08-22T18:27:28.294Z,8.17
2018-08-22T18:29:57.020Z,8.30
2018-08-22T18:32:25.730Z,8.57
2018-08-22T18:35:11.430Z,8.47
2018-08-22T18:37:40.795Z,8.17
2018-08-22T18:40:19.166Z,8.13
2018-08-22T18:42:50.274Z,8.47
2018-08-22T18:45:19.451Z,9.07
2018-08-22T18:47:48.190Z,9.70
2018-08-22T18:50:16.961Z,8.70
2018-08-22T18:52:48.453Z,8.83
2018-08-22T18:55:17.213Z,9.37
2018-08-22T18:57:45.967Z,9.03
2018-08-22T19:00:14.675Z,9.47
2018-08-22T19:02:43.435Z,10.27
2018-08-22T19:05:26.149Z,11.10
2018-08-22T19:08:05.049Z,9.50
2018-08-22T19:10:35.195Z,9.83
2018-08-22T19:13:09.085Z,10.20
2018-08-22T19:15:38.336Z,10.10
2018-08-22T19:18:08.569Z,10.17
2018-08-22T19:20:37.507Z,9.70
2018-08-22T19:23:06.925Z,10.57
2018-08-22T19:25:35.640Z,11.13
2018-08-22T19:28:04.434Z,11.33
2018-08-22T19:30:36.123Z,9.63
2018-08-22T19:33:05.172Z,10.57
2018-08-22T19:35:33.963Z,10.73
2018-08-22T19:38:04.540Z,10.53
2018-08-22T19:40:35.130Z,10.63
2018-08-22T19:43:04.031Z,10.43
2018-08-22T19:45:35.075Z,10.70
2018-08-22T19:48:03.960Z,9.97
2018-08-22T19:50:33.118Z,10.07
2018-08-22T19:53:01.858Z,9.97
2018-08-22T19:55:31.080Z,10.07
2018-08-22T19:57:59.937Z,10.13
2018-08-22T20:00:28.751Z,9.40
2018-08-22T20:02:58.358Z,16.97
2018-08-22T20:05:27.403Z,9.87
2018-08-22T20:07:56.126Z,11.10
2018-08-22T20:10:25.057Z,9.23
2018-08-22T20:12:55.922Z,8.63
2018-08-22T20:15:25.018Z,8.63
2018-08-22T20:17:54.747Z,9.57
2018-08-22T20:20:23.498Z,8.63
2018-08-22T20:22:54.469Z,9.00
2018-08-22T20:25:23.071Z,8.00
2018-08-22T20:27:51.765Z,8.50
2018-08-22T20:30:22.315Z,8.57
2018-08-22T20:33:00.065Z,8.33
2018-08-22T20:35:36.836Z,8.90
2018-08-22T20:38:06.992Z,8.87
2018-08-22T20:40:35.766Z,8.90
2018-08-22T20:43:04.533Z,9.03
2018-08-22T20:45:36.296Z,9.03
2018-08-22T20:48:11.960Z,8.37
2018-08-22T20:50:41.991Z,8.77
2018-08-22T20:53:12.213Z,8.63
2018-08-22T20:55:41.033Z,9.80
2018-08-22T20:58:15.368Z,9.57
2018-08-22T21:00:44.153Z,9.10
2018-08-22T21:03:12.854Z,8.77
2018-08-22T21:05:41.724Z,8.83
2018-08-22T21:08:10.459Z,8.57
2018-08-22T21:10:39.193Z,10.00
2018-08-22T21:13:13.465Z,8.57
2018-08-22T21:15:42.643Z,11.93
2018-08-22T21:18:11.376Z,10.73
2018-08-22T21:20:40.090Z,8.77
2018-08-22T21:23:08.828Z,8.87
2018-08-22T21:25:37.547Z,8.80
2018-08-22T21:28:06.251Z,8.93
2018-08-22T21:30:35.172Z,8.67
2018-08-22T21:33:03.936Z,9.70
2018-08-22T21:35:32.839Z,8.10
2018-08-22T21:38:07.453Z,8.17
2018-08-22T21:40:36.258Z,8.30
2018-08-22T21:43:05.053Z,7.67
2018-08-22T21:45:33.787Z,8.00
2018-08-22T21:48:14.258Z,7.90
2018-08-22T21:50:43.823Z,7.73
2018-08-22T21:53:12.568Z,7.60
2018-08-22T21:55:42.514Z,7.60
2018-08-22T21:58:11.859Z,7.33
2018-08-22T22:00:40.652Z,9.07
2018-08-22T22:03:10.668Z,7.10
2018-08-22T22:05:46.580Z,7.43
2018-08-22T22:08:15.375Z,8.20
2018-08-22T22:10:44.079Z,6.93
2018-08-22T22:13:12.920Z,8.10
2018-08-22T22:15:46.491Z,7.63
2018-08-22T22:18:15.201Z,7.53
2018-08-22T22:20:47.983Z,7.60
2018-08-22T22:23:16.701Z,7.37
2018-08-22T22:25:45.455Z,6.80
2018-08-22T22:28:14.286Z,7.40
2018-08-22T22:30:43.057Z,7.27
2018-08-22T22:33:11.794Z,6.67
2018-08-22T22:35:41.568Z,6.90
2018-08-22T22:38:11.139Z,6.30
2018-08-22T22:40:40.210Z,6.50
2018-08-22T22:43:13.345Z,6.97
2018-08-22T22:45:42.095Z,6.83
2018-08-22T22:48:10.780Z,7.67
2018-08-22T22:50:39.509Z,7.20
2018-08-22T22:53:08.195Z,6.77
2018-08-22T22:55:36.899Z,6.80
2018-08-22T22:58:05.651Z,7.60
2018-08-22T23:00:34.387Z,7.00
2018-08-22T23:03:07.623Z,7.63
2018-08-22T23:05:36.340Z,6.70
2018-08-22T23:08:05.063Z,6.80
2018-08-22T23:10:33.806Z,6.63
2018-08-22T23:13:02.533Z,6.13
2018-08-22T23:15:31.743Z,5.93
2018-08-22T23:18:01.688Z,5.50
2018-08-22T23:20:41.146Z,5.77
2018-08-22T23:23:25.975Z,5.90
2018-08-22T23:25:55.610Z,5.63
2018-08-22T23:28:24.308Z,5.57
2018-08-22T23:30:53.058Z,5.70
2018-08-22T23:33:21.783Z,5.03
2018-08-22T23:35:50.506Z,5.57
2018-08-22T23:38:24.478Z,5.40
2018-08-22T23:40:53.349Z,4.87
2018-08-22T23:43:22.185Z,4.97
2018-08-22T23:45:57.023Z,5.07
2018-08-22T23:48:30.872Z,4.87
2018-08-22T23:51:01.335Z,5.17
2018-08-22T23:53:37.209Z,5.13
2018-08-22T23:56:14.771Z,5.00
2018-08-22T23:58:44.621Z,5.73
